Time;durP1;ratioP1;P1;durP2;ratioP2;P2;SDS_P1;SDS_P2;PMS_P1;PMS_P2;Temp;Humidity;BMP_temperature;BMP_pressure;BME280_temperature;BME280_humidity;BME280_pressure;Samples;Min_cycle;Max_cycle;Signal;HPM_P1;HPM_P2
2023/03/11 00:00:39;;;;;;;1.70;0.80;;;;;;;;;;4970967;28;20057;-85
2023/03/11 00:03:08;;;;;;;0.93;0.90;;;;;;;;;;4956644;28;20058;-85
2023/03/11 00:05:37;;;;;;;1.15;0.90;;;;;;;;;;4978530;28;20046;-85
2023/03/11 00:08:10;;;;;;;0.95;0.80;;;;;;;;;;4959898;28;20051;-85
2023/03/11 00:10:41;;;;;;;0.90;0.85;;;;;;;;;;4957708;28;20437;-84
2023/03/11 00:13:13;;;;;;;1.50;0.80;;;;;;;;;;4957228;28;20035;-84
2023/03/11 00:15:44;;;;;;;0.98;0.90;;;;;;;;;;4964984;23;20442;-83
2023/03/11 00:18:11;;;;;;;0.60;0.60;;;;;;;;;;4957458;28;20061;-84
2023/03/11 00:20:40;;;;;;;2.60;1.35;;;;;;;;;;4946617;29;20237;-83
2023/03/11 00:23:12;;;;;;;0.85;0.63;;;;;;;;;;4949472;28;20833;-84
2023/03/11 00:25:40;;;;;;;1.00;0.70;;;;;;;;;;4949455;29;20047;-84
2023/03/11 00:28:10;;;;;;;3.45;1.23;;;;;;;;;;4949874;29;20051;-84
2023/03/11 00:30:41;;;;;;;3.47;1.52;;;;;;;;;;4932227;29;20063;-84
2023/03/11 00:33:10;;;;;;;0.85;0.60;;;;;;;;;;4933779;28;20053;-84
2023/03/11 00:35:43;;;;;;;1.83;0.80;;;;;;;;;;4948150;28;20086;-85
2023/03/11 00:38:14;;;;;;;5.28;1.25;;;;;;;;;;4949631;28;20047;-84
2023/03/11 00:40:42;;;;;;;3.40;1.00;;;;;;;;;;4947943;28;20402;-84
2023/03/11 00:43:10;;;;;;;1.88;0.90;;;;;;;;;;4943999;28;20406;-84
2023/03/11 00:45:37;;;;;;;1.50;0.80;;;;;;;;;;4941225;28;20498;-85
2023/03/11 00:48:12;;;;;;;1.58;0.80;;;;;;;;;;4944917;29;20054;-84
2023/03/11 00:50:40;;;;;;;0.73;0.73;;;;;;;;;;4946832;29;20063;-84
2023/03/11 00:53:07;;;;;;;2.83;0.95;;;;;;;;;;4933088;29;20043;-84
2023/03/11 00:55:38;;;;;;;1.30;0.63;;;;;;;;;;4932624;29;20520;-84
2023/03/11 00:58:08;;;;;;;1.58;1.27;;;;;;;;;;4934515;29;20054;-84
2023/03/11 01:00:42;;;;;;;1.27;0.60;;;;;;;;;;4947823;29;20047;-84
2023/03/11 01:03:10;;;;;;;1.30;1.00;;;;;;;;;;4950665;29;20039;-85
2023/03/11 01:05:37;;;;;;;2.58;0.60;;;;;;;;;;4925343;29;20047;-84
2023/03/11 01:08:07;;;;;;;1.92;1.23;;;;;;;;;;4956072;28;20047;-84
2023/03/11 01:10:38;;;;;;;1.08;0.98;;;;;;;;;;4947380;29;20059;-84
2023/03/11 01:13:08;;;;;;;1.15;1.05;;;;;;;;;;4950465;28;20047;-85
2023/03/11 01:15:36;;;;;;;2.63;1.65;;;;;;;;;;4951486;29;20059;-84
2023/03/11 01:18:05;;;;;;;2.78;0.80;;;;;;;;;;4930378;29;20058;-84
2023/03/11 01:20:34;;;;;;;4.00;1.00;;;;;;;;;;4947501;29;20079;-84
2023/03/11 01:23:05;;;;;;;0.85;0.82;;;;;;;;;;4948963;29;20047;-84
2023/03/11 01:25:35;;;;;;;1.10;1.00;;;;;;;;;;4955101;28;20051;-85
2023/03/11 01:28:03;;;;;;;0.55;0.55;;;;;;;;;;4933199;29;20074;-84
2023/03/11 01:30:37;;;;;;;1.42;1.23;;;;;;;;;;4923120;29;20417;-85
2023/03/11 01:33:05;;;;;;;1.10;0.85;;;;;;;;;;4947135;29;20044;-84
2023/03/11 01:35:34;;;;;;;0.93;0.82;;;;;;;;;;4933237;29;20062;-84
2023/03/11 01:38:06;;;;;;;1.67;1.20;;;;;;;;;;4947876;29;20043;-84
2023/03/11 01:40:38;;;;;;;0.77;0.70;;;;;;;;;;4935864;29;20062;-84
2023/03/11 01:43:44;;;;;;;3.45;0.93;;;;;;;;;;4947584;29;20050;-84
2023/03/11 01:47:20;;;;;;;2.78;1.27;;;;;;;;;;4940876;28;20062;-84
2023/03/11 01:49:48;;;;;;;2.45;1.02;;;;;;;;;;4958482;28;20058;-84
2023/03/11 01:52:19;;;;;;;2.65;1.33;;;;;;;;;;4943292;28;20039;-84
2023/03/11 01:54:50;;;;;;;3.55;1.45;;;;;;;;;;4934282;28;20520;-84
2023/03/11 01:57:17;;;;;;;1.55;1.10;;;;;;;;;;4960343;28;20074;-84
2023/03/11 01:59:48;;;;;;;3.42;1.20;;;;;;;;;;4957843;28;20040;-84
2023/03/11 02:02:26;;;;;;;1.02;0.77;;;;;;;;;;4953032;29;20043;-84
2023/03/11 02:04:56;;;;;;;2.30;1.10;;;;;;;;;;4951758;28;20051;-84
2023/03/11 02:07:27;;;;;;;1.92;1.35;;;;;;;;;;4952136;29;20062;-84
2023/03/11 02:09:55;;;;;;;1.73;1.48;;;;;;;;;;4950487;29;20405;-84
2023/03/11 02:12:23;;;;;;;2.50;1.08;;;;;;;;;;4934576;29;20051;-85
2023/03/11 02:14:53;;;;;;;3.88;1.30;;;;;;;;;;4950859;28;20056;-84
2023/03/11 02:17:22;;;;;;;3.95;2.65;;;;;;;;;;4956936;28;20048;-84
2023/03/11 02:20:11;;;;;;;3.65;1.02;;;;;;;;;;4967789;28;20050;-84
2023/03/11 02:22:44;;;;;;;1.67;0.95;;;;;;;;;;4932115;29;20082;-85
2023/03/11 02:25:18;;;;;;;1.83;1.05;;;;;;;;;;4944638;29;20051;-84
2023/03/11 02:27:53;;;;;;;1.77;0.95;;;;;;;;;;4931996;29;20059;-84
2023/03/11 02:30:23;;;;;;;2.10;0.90;;;;;;;;;;4950556;29;20047;-84
2023/03/11 02:32:54;;;;;;;2.25;1.13;;;;;;;;;;4949878;29;20047;-84
2023/03/11 02:35:22;;;;;;;1.92;1.40;;;;;;;;;;4951888;29;20055;-85
2023/03/11 02:37:53;;;;;;;2.35;0.80;;;;;;;;;;4932980;29;20059;-85
2023/03/11 02:40:41;;;;;;;1.77;1.48;;;;;;;;;;4956825;28;20059;-84
2023/03/11 02:43:14;;;;;;;0.85;0.70;;;;;;;;;;4935463;29;20058;-84
2023/03/11 02:45:44;;;;;;;1.98;1.02;;;;;;;;;;4950249;29;20402;-84
2023/03/11 02:48:14;;;;;;;1.35;1.05;;;;;;;;;;4957207;28;20043;-84
2023/03/11 02:50:46;;;;;;;3.53;1.63;;;;;;;;;;4932291;29;20390;-84
2023/03/11 02:53:19;;;;;;;1.92;1.38;;;;;;;;;;4948546;29;20043;-84
2023/03/11 02:55:49;;;;;;;2.60;1.20;;;;;;;;;;4935731;29;20055;-84
2023/03/11 02:58:18;;;;;;;2.17;1.35;;;;;;;;;;4961408;28;20497;-84
2023/03/11 03:00:45;;;;;;;1.60;0.90;;;;;;;;;;4952838;28;20055;-84
2023/03/11 03:03:13;;;;;;;2.90;0.98;;;;;;;;;;4940696;28;20044;-84
2023/03/11 03:05:44;;;;;;;1.50;0.90;;;;;;;;;;4931426;29;20422;-84
2023/03/11 03:08:14;;;;;;;2.08;1.60;;;;;;;;;;4947758;28;20039;-84
2023/03/11 03:10:42;;;;;;;7.68;1.35;;;;;;;;;;4950212;28;20060;-84
2023/03/11 03:13:09;;;;;;;2.42;1.20;;;;;;;;;;4934594;29;20528;-84
2023/03/11 03:15:38;;;;;;;1.85;0.98;;;;;;;;;;4963309;28;20055;-84
2023/03/11 03:18:08;;;;;;;1.80;1.25;;;;;;;;;;4960743;28;20050;-84
2023/03/11 03:20:40;;;;;;;7.22;1.27;;;;;;;;;;4938655;28;20406;-84
2023/03/11 03:23:07;;;;;;;1.85;1.15;;;;;;;;;;4948847;29;20047;-84
2023/03/11 03:25:34;;;;;;;2.47;1.52;;;;;;;;;;4954254;29;20055;-84
2023/03/11 03:28:05;;;;;;;2.88;1.70;;;;;;;;;;4935624;29;20051;-84
2023/03/11 03:30:38;;;;;;;1.77;1.58;;;;;;;;;;4951578;29;20074;-84
2023/03/11 03:33:06;;;;;;;1.50;0.90;;;;;;;;;;4949896;28;20086;-84
2023/03/11 03:35:34;;;;;;;3.55;1.58;;;;;;;;;;4952880;29;20059;-84
2023/03/11 03:38:24;;;;;;;1.65;1.17;;;;;;;;;;4954223;29;20039;-85
2023/03/11 03:40:55;;;;;;;1.50;1.20;;;;;;;;;;4956781;29;20417;-84
2023/03/11 03:43:25;;;;;;;2.42;1.17;;;;;;;;;;4944110;28;20058;-84
2023/03/11 03:45:57;;;;;;;5.07;1.20;;;;;;;;;;4938953;29;20056;-84
2023/03/11 03:48:26;;;;;;;1.20;0.93;;;;;;;;;;4951434;29;20031;-84
2023/03/11 03:50:53;;;;;;;1.77;1.05;;;;;;;;;;4961307;28;20414;-84
2023/03/11 03:53:21;;;;;;;1.85;1.27;;;;;;;;;;4945378;28;20055;-84
2023/03/11 03:55:49;;;;;;;3.35;0.90;;;;;;;;;;4950833;29;20043;-84
2023/03/11 03:58:17;;;;;;;5.80;1.35;;;;;;;;;;4933375;29;20106;-84
2023/03/11 04:00:45;;;;;;;1.60;1.50;;;;;;;;;;4942726;29;20039;-84
2023/03/11 04:03:14;;;;;;;2.00;1.10;;;;;;;;;;4958299;28;20502;-84
2023/03/11 04:05:50;;;;;;;9.90;1.95;;;;;;;;;;4950276;28;20054;-84
2023/03/11 04:08:20;;;;;;;2.35;1.00;;;;;;;;;;4948542;29;20051;-84
2023/03/11 04:10:56;;;;;;;2.47;2.10;;;;;;;;;;4950329;28;20055;-84
2023/03/11 04:13:28;;;;;;;2.17;1.15;;;;;;;;;;4932823;29;20063;-84
2023/03/11 04:15:56;;;;;;;3.67;1.38;;;;;;;;;;4950083;28;20040;-84
2023/03/11 04:18:24;;;;;;;1.40;1.10;;;;;;;;;;4945155;28;20391;-84
2023/03/11 04:20:52;;;;;;;2.83;1.52;;;;;;;;;;4952047;29;20449;-84
2023/03/11 04:23:27;;;;;;;2.92;1.52;;;;;;;;;;4947692;29;20445;-84
2023/03/11 04:25:54;;;;;;;3.30;1.77;;;;;;;;;;4951761;29;20048;-84
2023/03/11 04:28:22;;;;;;;3.15;1.40;;;;;;;;;;4950404;29;20048;-84
2023/03/11 04:30:49;;;;;;;5.20;2.17;;;;;;;;;;4937478;28;20050;-84
2023/03/11 04:33:17;;;;;;;1.95;1.38;;;;;;;;;;4942935;29;20414;-84
2023/03/11 04:35:48;;;;;;;4.13;2.30;;;;;;;;;;4947424;29;20054;-84
2023/03/11 04:38:17;;;;;;;5.32;2.42;;;;;;;;;;4948965;28;20509;-84
2023/03/11 04:40:50;;;;;;;4.43;1.42;;;;;;;;;;4936118;28;20517;-84
2023/03/11 04:43:18;;;;;;;5.68;2.72;;;;;;;;;;4960950;28;20051;-84
2023/03/11 04:45:50;;;;;;;5.35;1.70;;;;;;;;;;4930277;29;20055;-84
2023/03/11 04:48:17;;;;;;;2.08;1.60;;;;;;;;;;4950024;29;20047;-83
2023/03/11 04:50:48;;;;;;;2.35;1.35;;;;;;;;;;4963362;28;20051;-84
2023/03/11 04:53:18;;;;;;;2.67;1.52;;;;;;;;;;4951097;29;20055;-84
2023/03/11 04:55:46;;;;;;;2.20;1.00;;;;;;;;;;4957267;28;20638;-84
2023/03/11 04:58:14;;;;;;;2.53;1.35;;;;;;;;;;4943597;28;20055;-84
2023/03/11 05:00:44;;;;;;;2.92;1.85;;;;;;;;;;4950336;28;20051;-84
2023/03/11 05:03:13;;;;;;;4.43;1.60;;;;;;;;;;4940411;29;20066;-84
2023/03/11 05:05:45;;;;;;;5.38;1.25;;;;;;;;;;4957674;28;20047;-84
2023/03/11 05:08:16;;;;;;;6.07;1.70;;;;;;;;;;4954321;28;20042;-84
2023/03/11 05:10:44;;;;;;;4.97;1.80;;;;;;;;;;4948280;29;20051;-84
2023/03/11 05:13:14;;;;;;;5.30;1.95;;;;;;;;;;4951794;28;20390;-84
2023/03/11 05:15:42;;;;;;;4.35;1.27;;;;;;;;;;4930999;29;20058;-84
2023/03/11 05:18:09;;;;;;;3.60;1.45;;;;;;;;;;4948770;28;20344;-84
2023/03/11 05:20:38;;;;;;;4.55;2.00;;;;;;;;;;4946414;28;20088;-84
2023/03/11 05:23:09;;;;;;;2.85;1.80;;;;;;;;;;4943658;29;20574;-84
2023/03/11 05:25:39;;;;;;;1.77;1.30;;;;;;;;;;4952157;28;20425;-84
2023/03/11 05:28:06;;;;;;;2.92;1.58;;;;;;;;;;4947247;28;20051;-84
2023/03/11 05:30:37;;;;;;;3.92;1.55;;;;;;;;;;4952719;29;20058;-84
2023/03/11 05:33:04;;;;;;;2.40;1.65;;;;;;;;;;4933694;29;20062;-83
2023/03/11 05:35:32;;;;;;;4.72;2.65;;;;;;;;;;4952516;29;20055;-84
2023/03/11 05:37:59;;;;;;;11.38;2.90;;;;;;;;;;4955146;28;20062;-84
2023/03/11 05:40:29;;;;;;;2.92;2.25;;;;;;;;;;4937106;29;20059;-84
2023/03/11 05:42:58;;;;;;;3.75;1.42;;;;;;;;;;4953783;29;20071;-84
2023/03/11 05:45:28;;;;;;;3.38;1.48;;;;;;;;;;4937131;29;20071;-84
2023/03/11 05:48:00;;;;;;;2.30;1.85;;;;;;;;;;4936856;29;20066;-83
2023/03/11 05:50:27;;;;;;;1.60;1.27;;;;;;;;;;4935749;29;20058;-84
2023/03/11 05:52:57;;;;;;;2.85;1.40;;;;;;;;;;4936683;29;20073;-85
2023/03/11 05:55:24;;;;;;;3.75;1.80;;;;;;;;;;4949986;29;20058;-85
2023/03/11 05:57:54;;;;;;;1.92;1.23;;;;;;;;;;4954528;28;20052;-85
2023/03/11 06:00:23;;;;;;;4.85;1.60;;;;;;;;;;4934731;29;20069;-85
2023/03/11 06:02:53;;;;;;;10.48;2.08;;;;;;;;;;4951945;29;20082;-85
2023/03/11 06:05:20;;;;;;;4.05;2.60;;;;;;;;;;4928362;29;20047;-84
2023/03/11 06:07:49;;;;;;;4.53;2.13;;;;;;;;;;4936729;29;20509;-87
2023/03/11 06:10:17;;;;;;;1.55;1.42;;;;;;;;;;4947187;29;20050;-79
2023/03/11 06:12:50;;;;;;;3.42;1.35;;;;;;;;;;4942730;28;20047;-79
2023/03/11 06:15:24;;;;;;;3.90;1.83;;;;;;;;;;4962546;23;20064;-77
2023/03/11 06:18:00;;;;;;;5.13;1.77;;;;;;;;;;4918211;29;20047;-77
2023/03/11 06:20:32;;;;;;;3.03;1.95;;;;;;;;;;4934804;29;20043;-77
2023/03/11 06:23:02;;;;;;;3.42;2.00;;;;;;;;;;4933194;29;20048;-78
2023/03/11 06:25:32;;;;;;;7.53;2.63;;;;;;;;;;4948482;28;20495;-77
2023/03/11 06:28:00;;;;;;;4.63;2.55;;;;;;;;;;4915174;29;20052;-78
2023/03/11 06:30:35;;;;;;;6.35;3.17;;;;;;;;;;4916550;29;20066;-78
2023/03/11 06:33:10;;;;;;;3.55;3.10;;;;;;;;;;4892689;29;20059;-78
2023/03/11 06:35:40;;;;;;;3.83;3.47;;;;;;;;;;4914732;29;20040;-78
2023/03/11 06:38:09;;;;;;;9.27;4.82;;;;;;;;;;4913276;29;20387;-78
2023/03/11 06:40:37;;;;;;;8.73;6.05;;;;;;;;;;4894640;29;20048;-78
2023/03/11 06:43:08;;;;;;;7.97;5.25;;;;;;;;;;4927707;29;20058;-78
2023/03/11 06:45:40;;;;;;;18.20;5.80;;;;;;;;;;4927624;29;20059;-78
2023/03/11 06:48:08;;;;;;;6.07;3.03;;;;;;;;;;4902124;29;20055;-78
2023/03/11 06:50:37;;;;;;;9.50;4.88;;;;;;;;;;4909713;29;20067;-78
2023/03/11 06:53:05;;;;;;;6.47;3.42;;;;;;;;;;4929078;29;20060;-78
2023/03/11 06:55:36;;;;;;;6.25;4.07;;;;;;;;;;4930982;29;20048;-78
2023/03/11 06:58:03;;;;;;;4.63;2.75;;;;;;;;;;4928374;29;20052;-78
2023/03/11 07:00:34;;;;;;;7.55;2.63;;;;;;;;;;4916420;29;20044;-78
2023/03/11 07:03:04;;;;;;;6.20;1.80;;;;;;;;;;4898726;29;20048;-78
2023/03/11 07:05:36;;;;;;;4.85;1.30;;;;;;;;;;4900696;29;20059;-78
2023/03/11 07:08:08;;;;;;;3.05;2.13;;;;;;;;;;4907321;29;20048;-78
2023/03/11 07:10:35;;;;;;;3.55;1.63;;;;;;;;;;4915364;29;20414;-78
2023/03/11 07:13:02;;;;;;;4.28;1.50;;;;;;;;;;4915067;29;20044;-76
2023/03/11 07:15:30;;;;;;;4.38;1.90;;;;;;;;;;4913705;29;20052;-76
2023/03/11 07:18:00;;;;;;;3.35;1.55;;;;;;;;;;4913426;29;20063;-76
2023/03/11 07:20:31;;;;;;;7.53;1.85;;;;;;;;;;4907244;29;20062;-76
2023/03/11 07:23:01;;;;;;;1.77;1.15;;;;;;;;;;4912950;29;20055;-76
2023/03/11 07:25:28;;;;;;;2.83;1.60;;;;;;;;;;4915801;29;20048;-77
2023/03/11 07:27:55;;;;;;;3.38;2.00;;;;;;;;;;4912476;29;20510;-77
2023/03/11 07:30:22;;;;;;;4.50;1.70;;;;;;;;;;4910854;29;20044;-77
2023/03/11 07:32:52;;;;;;;7.07;2.13;;;;;;;;;;4927601;29;20048;-78
2023/03/11 07:35:21;;;;;;;1.92;1.40;;;;;;;;;;4918117;29;20497;-77
2023/03/11 07:37:50;;;;;;;3.78;2.08;;;;;;;;;;4912992;29;20212;-77
2023/03/11 07:40:17;;;;;;;1.85;1.65;;;;;;;;;;4913874;29;20056;-77
2023/03/11 07:42:47;;;;;;;3.40;1.77;;;;;;;;;;4945441;29;20064;-77
2023/03/11 07:45:20;;;;;;;3.30;1.30;;;;;;;;;;4916308;29;20047;-77
2023/03/11 07:47:49;;;;;;;2.40;1.23;;;;;;;;;;4927582;29;20060;-77
2023/03/11 07:50:17;;;;;;;3.70;1.73;;;;;;;;;;4928505;29;20058;-77
2023/03/11 07:52:44;;;;;;;2.63;2.22;;;;;;;;;;4912606;29;20048;-78
2023/03/11 07:55:13;;;;;;;3.28;1.95;;;;;;;;;;4911099;29;20044;-77
2023/03/11 07:57:42;;;;;;;5.40;2.83;;;;;;;;;;4911843;29;20064;-77
2023/03/11 08:00:11;;;;;;;3.45;1.38;;;;;;;;;;4910158;29;20048;-77
2023/03/11 08:02:44;;;;;;;5.82;1.95;;;;;;;;;;4913822;29;20048;-77
2023/03/11 08:05:11;;;;;;;4.72;2.15;;;;;;;;;;4912187;29;20051;-77
2023/03/11 08:07:38;;;;;;;9.65;2.78;;;;;;;;;;4911806;29;20079;-77
2023/03/11 08:10:06;;;;;;;1.88;1.60;;;;;;;;;;4896068;29;20052;-78
2023/03/11 08:12:40;;;;;;;3.90;2.47;;;;;;;;;;4924148;29;20052;-77
2023/03/11 08:15:10;;;;;;;6.30;1.60;;;;;;;;;;4909163;29;20036;-78
2023/03/11 08:17:37;;;;;;;3.08;1.88;;;;;;;;;;4911401;29;20056;-78
2023/03/11 08:20:07;;;;;;;8.05;2.28;;;;;;;;;;4901370;29;20051;-78
2023/03/11 08:22:59;;;;;;;4.72;1.60;;;;;;;;;;4905467;29;20060;-78
2023/03/11 08:25:26;;;;;;;5.53;2.03;;;;;;;;;;4929496;29;20047;-78
2023/03/11 08:27:57;;;;;;;4.18;1.60;;;;;;;;;;4913079;29;20048;-78
2023/03/11 08:30:25;;;;;;;3.35;1.50;;;;;;;;;;4911132;29;20044;-78
2023/03/11 08:32:55;;;;;;;5.72;1.85;;;;;;;;;;4926363;29;20570;-78
2023/03/11 08:35:22;;;;;;;3.17;2.05;;;;;;;;;;4912926;29;20051;-78
2023/03/11 08:37:52;;;;;;;3.95;2.00;;;;;;;;;;4911879;29;20514;-78
2023/03/11 08:40:19;;;;;;;2.20;1.65;;;;;;;;;;4908336;29;20055;-80
2023/03/11 08:42:49;;;;;;;5.90;1.90;;;;;;;;;;4912603;29;20060;-78
2023/03/11 08:45:17;;;;;;;2.85;1.55;;;;;;;;;;4927275;29;20051;-79
2023/03/11 08:47:47;;;;;;;5.28;2.08;;;;;;;;;;4912493;29;20048;-79
2023/03/11 08:50:19;;;;;;;4.80;1.90;;;;;;;;;;4912494;29;20516;-79
2023/03/11 08:52:46;;;;;;;3.05;1.42;;;;;;;;;;4914000;29;20052;-79
2023/03/11 08:55:22;;;;;;;7.70;1.75;;;;;;;;;;4928411;29;20048;-78
2023/03/11 08:58:15;;;;;;;3.28;1.95;;;;;;;;;;4910050;29;20418;-78
2023/03/11 09:00:43;;;;;;;4.38;1.77;;;;;;;;;;4914704;29;20060;-78
2023/03/11 09:03:10;;;;;;;3.33;2.03;;;;;;;;;;4912139;29;20059;-78
2023/03/11 09:05:43;;;;;;;3.85;1.65;;;;;;;;;;4910816;29;20059;-79
2023/03/11 09:08:10;;;;;;;3.72;2.35;;;;;;;;;;4913228;29;20044;-78
2023/03/11 09:10:37;;;;;;;3.72;1.98;;;;;;;;;;4911171;29;20045;-79
2023/03/11 09:13:04;;;;;;;3.97;1.85;;;;;;;;;;4914264;29;20056;-78
2023/03/11 09:15:35;;;;;;;1.90;1.23;;;;;;;;;;4912445;29;20044;-78
2023/03/11 09:18:03;;;;;;;3.80;2.30;;;;;;;;;;4906649;29;20059;-78
2023/03/11 09:20:33;;;;;;;2.47;1.45;;;;;;;;;;4907914;29;20044;-77
2023/03/11 09:23:03;;;;;;;2.35;1.42;;;;;;;;;;4910357;29;20048;-78
2023/03/11 09:25:30;;;;;;;4.53;1.58;;;;;;;;;;4909584;29;20056;-78
2023/03/11 09:27:57;;;;;;;3.92;2.13;;;;;;;;;;4911930;29;20052;-78
2023/03/11 09:30:24;;;;;;;7.07;2.22;;;;;;;;;;4913282;29;20044;-78
2023/03/11 09:33:18;;;;;;;3.17;0.90;;;;;;;;;;4910283;29;20055;-78
2023/03/11 09:35:45;;;;;;;2.95;1.08;;;;;;;;;;4925169;29;20048;-78
2023/03/11 09:38:17;;;;;;;2.38;1.10;;;;;;;;;;4910996;29;20491;-78
2023/03/11 09:40:53;;;;;;;4.53;1.73;;;;;;;;;;4928158;29;20066;-78
2023/03/11 09:43:31;;;;;;;4.68;1.75;;;;;;;;;;4906800;29;20044;-78
2023/03/11 09:46:05;;;;;;;4.03;1.55;;;;;;;;;;4914234;29;20324;-78
2023/03/11 09:48:37;;;;;;;1.45;0.90;;;;;;;;;;4896705;29;20044;-78
2023/03/11 09:51:09;;;;;;;2.42;1.30;;;;;;;;;;4910407;29;20067;-78
2023/03/11 09:53:42;;;;;;;2.90;1.85;;;;;;;;;;4914690;29;20059;-78
2023/03/11 09:56:10;;;;;;;2.17;1.63;;;;;;;;;;4912164;29;20372;-78
2023/03/11 09:58:39;;;;;;;3.38;1.23;;;;;;;;;;4919083;29;20048;-78
2023/03/11 10:01:20;;;;;;;3.05;1.10;;;;;;;;;;4914727;29;20048;-78
2023/03/11 10:03:53;;;;;;;3.33;1.25;;;;;;;;;;4911352;29;20063;-78
2023/03/11 10:06:25;;;;;;;3.95;1.15;;;;;;;;;;4914274;29;20047;-78
2023/03/11 10:08:58;;;;;;;3.00;2.17;;;;;;;;;;4911762;29;20059;-78
2023/03/11 10:11:39;;;;;;;3.20;2.05;;;;;;;;;;4925892;29;20055;-79
2023/03/11 10:14:15;;;;;;;3.40;1.42;;;;;;;;;;4912129;29;20056;-78
2023/03/11 10:16:54;;;;;;;2.47;1.40;;;;;;;;;;4895649;29;20059;-79
2023/03/11 10:19:33;;;;;;;4.15;1.33;;;;;;;;;;4932133;29;20115;-78
2023/03/11 10:22:10;;;;;;;3.15;1.73;;;;;;;;;;4913610;29;20044;-78
2023/03/11 10:25:01;;;;;;;1.98;1.20;;;;;;;;;;4912979;29;20056;-78
2023/03/11 10:27:31;;;;;;;3.72;2.35;;;;;;;;;;4898111;29;20067;-78
2023/03/11 10:30:08;;;;;;;2.15;1.55;;;;;;;;;;4929383;29;20422;-78
2023/03/11 10:32:41;;;;;;;3.97;2.20;;;;;;;;;;4928593;29;20406;-78
2023/03/11 10:35:19;;;;;;;5.40;2.47;;;;;;;;;;4931974;29;20048;-77
2023/03/11 10:37:53;;;;;;;3.22;1.88;;;;;;;;;;4919030;29;20055;-78
2023/03/11 10:40:27;;;;;;;3.00;1.60;;;;;;;;;;4913028;29;20048;-78
2023/03/11 10:42:56;;;;;;;3.45;1.80;;;;;;;;;;4912107;29;20052;-78
2023/03/11 10:45:27;;;;;;;2.25;1.27;;;;;;;;;;4918262;29;20137;-79
2023/03/11 10:47:57;;;;;;;3.60;1.60;;;;;;;;;;4926935;29;20056;-77
2023/03/11 10:50:26;;;;;;;4.65;2.15;;;;;;;;;;4937339;29;20070;-77
2023/03/11 10:53:08;;;;;;;4.05;2.20;;;;;;;;;;4924451;29;20071;-78
2023/03/11 10:55:36;;;;;;;3.47;1.83;;;;;;;;;;4917393;29;20078;-77
2023/03/11 10:58:15;;;;;;;2.58;1.60;;;;;;;;;;4894712;29;20051;-78
2023/03/11 11:00:42;;;;;;;7.18;2.13;;;;;;;;;;4908927;29;20059;-79
2023/03/11 11:03:20;;;;;;;3.58;1.70;;;;;;;;;;4908782;29;20048;-79
2023/03/11 11:06:00;;;;;;;2.85;2.20;;;;;;;;;;4929164;29;20051;-79
2023/03/11 11:08:29;;;;;;;1.98;1.27;;;;;;;;;;4913070;29;20052;-79
2023/03/11 11:10:58;;;;;;;4.05;1.50;;;;;;;;;;4914119;29;20438;-78
2023/03/11 11:13:30;;;;;;;6.43;1.77;;;;;;;;;;4914205;29;20048;-78
2023/03/11 11:16:01;;;;;;;9.95;3.20;;;;;;;;;;4944477;28;20453;-78
2023/03/11 11:18:31;;;;;;;1.65;1.55;;;;;;;;;;4914366;29;20044;-78
2023/03/11 11:21:03;;;;;;;3.70;2.22;;;;;;;;;;4913195;29;20078;-78
2023/03/11 11:23:33;;;;;;;6.75;2.00;;;;;;;;;;4910978;29;20063;-78
2023/03/11 11:26:05;;;;;;;6.03;2.22;;;;;;;;;;4912519;29;20388;-78
2023/03/11 11:28:33;;;;;;;4.93;1.98;;;;;;;;;;4911664;29;20074;-79
2023/03/11 11:31:05;;;;;;;1.55;1.42;;;;;;;;;;4914954;29;20040;-78
2023/03/11 11:33:33;;;;;;;2.00;1.35;;;;;;;;;;4899096;29;20056;-78
2023/03/11 11:36:04;;;;;;;1.95;1.10;;;;;;;;;;4915509;29;20048;-78
2023/03/11 11:38:33;;;;;;;7.32;2.35;;;;;;;;;;4915245;29;20403;-78
2023/03/11 11:41:03;;;;;;;2.25;1.20;;;;;;;;;;4923041;29;20052;-78
2023/03/11 11:43:44;;;;;;;5.15;1.58;;;;;;;;;;4910238;29;20056;-78
2023/03/11 11:46:18;;;;;;;10.00;2.83;;;;;;;;;;4928581;29;20044;-78
2023/03/11 11:48:52;;;;;;;5.00;1.85;;;;;;;;;;4932050;29;20056;-78
2023/03/11 11:51:24;;;;;;;2.45;1.30;;;;;;;;;;4897657;29;20059;-78
2023/03/11 11:53:58;;;;;;;3.28;1.77;;;;;;;;;;4925443;29;20051;-78
2023/03/11 11:56:26;;;;;;;1.55;1.30;;;;;;;;;;4912280;29;20048;-78
2023/03/11 11:58:53;;;;;;;2.75;1.42;;;;;;;;;;4927233;29;20048;-78
2023/03/11 12:01:30;;;;;;;1.60;1.20;;;;;;;;;;4931453;29;20387;-78
2023/03/11 12:04:46;;;;;;;4.45;1.48;;;;;;;;;;4908811;29;20071;-78
2023/03/11 12:07:32;;;;;;;1.23;1.02;;;;;;;;;;4907423;29;20060;-78
2023/03/11 12:10:11;;;;;;;2.25;1.17;;;;;;;;;;4915114;29;20048;-78
2023/03/11 12:12:44;;;;;;;1.00;0.85;;;;;;;;;;4907786;29;20048;-78
2023/03/11 12:15:16;;;;;;;3.20;1.48;;;;;;;;;;4933190;23;20047;-79
2023/03/11 12:17:44;;;;;;;1.73;1.63;;;;;;;;;;4968257;29;20148;-78
2023/03/11 12:20:14;;;;;;;1.58;1.25;;;;;;;;;;4961242;28;20039;-78
2023/03/11 12:23:04;;;;;;;2.05;1.15;;;;;;;;;;4978166;28;20316;-79
2023/03/11 12:25:36;;;;;;;3.45;1.40;;;;;;;;;;4950988;28;20039;-79
2023/03/11 12:28:18;;;;;;;1.42;0.75;;;;;;;;;;4960615;28;20039;-77
2023/03/11 12:30:49;;;;;;;2.50;0.95;;;;;;;;;;4958440;28;20062;-78
2023/03/11 12:33:27;;;;;;;3.03;1.40;;;;;;;;;;4930815;29;20043;-79
2023/03/11 12:35:58;;;;;;;3.50;2.28;;;;;;;;;;4927914;29;20085;-78
2023/03/11 12:38:32;;;;;;;4.00;1.27;;;;;;;;;;4928880;29;20048;-79
2023/03/11 12:41:23;;;;;;;2.35;1.63;;;;;;;;;;4915063;29;20055;-78
2023/03/11 12:43:59;;;;;;;2.40;1.90;;;;;;;;;;4934977;29;20405;-78
2023/03/11 12:46:59;;;;;;;4.00;2.22;;;;;;;;;;4945173;28;20051;-78
2023/03/11 12:49:35;;;;;;;1.63;1.30;;;;;;;;;;4927260;29;20035;-79
2023/03/11 12:52:05;;;;;;;1.95;1.27;;;;;;;;;;4928913;29;20082;-79
2023/03/11 12:54:48;;;;;;;5.43;1.48;;;;;;;;;;4932091;29;20059;-79
2023/03/11 12:57:34;;;;;;;2.75;0.98;;;;;;;;;;4945624;28;20055;-78
2023/03/11 13:00:18;;;;;;;1.73;1.63;;;;;;;;;;4928224;29;20319;-79
2023/03/11 13:03:01;;;;;;;1.42;1.27;;;;;;;;;;4931854;29;20410;-79
2023/03/11 13:05:37;;;;;;;2.03;1.30;;;;;;;;;;4930308;29;20429;-78
2023/03/11 13:08:13;;;;;;;3.17;1.60;;;;;;;;;;4931867;29;20064;-78
2023/03/11 13:10:50;;;;;;;3.22;1.25;;;;;;;;;;4932304;29;20055;-79
2023/03/11 13:13:39;;;;;;;1.42;1.30;;;;;;;;;;4930461;29;20048;-79
2023/03/11 13:16:41;;;;;;;2.92;1.30;;;;;;;;;;4946775;29;20048;-79
2023/03/11 13:19:34;;;;;;;2.70;1.40;;;;;;;;;;4929607;29;20044;-79
2023/03/11 13:22:03;;;;;;;2.95;1.35;;;;;;;;;;4930316;29;20044;-79
2023/03/11 13:24:41;;;;;;;2.10;1.33;;;;;;;;;;4928708;29;20422;-79
2023/03/11 13:27:19;;;;;;;1.73;1.20;;;;;;;;;;4943380;28;20052;-79
2023/03/11 13:29:58;;;;;;;5.60;1.30;;;;;;;;;;4932069;29;20058;-79
2023/03/11 13:32:32;;;;;;;2.72;1.80;;;;;;;;;;4924749;29;20069;-78
2023/03/11 13:35:12;;;;;;;2.88;1.20;;;;;;;;;;4928933;29;20400;-78
2023/03/11 13:37:45;;;;;;;8.98;2.45;;;;;;;;;;4926983;29;20048;-78
2023/03/11 13:40:23;;;;;;;1.60;1.10;;;;;;;;;;4934300;29;20051;-78
2023/03/11 13:42:57;;;;;;;1.73;1.15;;;;;;;;;;4931109;29;20058;-78
2023/03/11 13:45:29;;;;;;;2.13;1.15;;;;;;;;;;4930079;29;20438;-79
2023/03/11 13:48:01;;;;;;;1.45;1.00;;;;;;;;;;4928813;29;20075;-78
2023/03/11 13:50:40;;;;;;;4.55;1.15;;;;;;;;;;4946321;28;20490;-78
2023/03/11 13:53:10;;;;;;;2.78;1.77;;;;;;;;;;4928933;29;20054;-79
2023/03/11 13:55:42;;;;;;;3.17;1.30;;;;;;;;;;4930728;29;20060;-79
2023/03/11 13:58:21;;;;;;;2.25;1.40;;;;;;;;;;4934243;29;20047;-79
2023/03/11 14:00:54;;;;;;;2.47;1.33;;;;;;;;;;4949138;28;20055;-79
2023/03/11 14:03:28;;;;;;;7.63;2.58;;;;;;;;;;4933300;29;20056;-79
2023/03/11 14:06:01;;;;;;;1.58;1.20;;;;;;;;;;4918778;29;20055;-79
2023/03/11 14:08:36;;;;;;;3.10;1.40;;;;;;;;;;4934367;29;20055;-79
2023/03/11 14:11:15;;;;;;;5.53;1.60;;;;;;;;;;4925556;29;20063;-79
2023/03/11 14:13:48;;;;;;;2.35;1.27;;;;;;;;;;4933006;29;20048;-79
2023/03/11 14:16:20;;;;;;;3.45;1.80;;;;;;;;;;4936343;29;20043;-79
2023/03/11 14:19:02;;;;;;;6.03;1.50;;;;;;;;;;4934936;29;20051;-79
2023/03/11 14:21:31;;;;;;;1.98;1.40;;;;;;;;;;4928661;28;20056;-79
2023/03/11 14:23:59;;;;;;;2.83;1.50;;;;;;;;;;4936778;29;20059;-79
2023/03/11 14:26:30;;;;;;;2.38;1.63;;;;;;;;;;4936575;29;20063;-78
2023/03/11 14:28:59;;;;;;;3.55;2.05;;;;;;;;;;4935790;29;20063;-78
2023/03/11 14:31:31;;;;;;;1.83;1.33;;;;;;;;;;4936412;29;20066;-79
2023/03/11 14:34:03;;;;;;;2.97;1.70;;;;;;;;;;4928421;29;20062;-79
2023/03/11 14:36:43;;;;;;;4.95;2.15;;;;;;;;;;4917522;29;20056;-79
2023/03/11 14:39:25;;;;;;;4.20;2.28;;;;;;;;;;4912221;29;20047;-79
2023/03/11 14:42:05;;;;;;;4.75;1.55;;;;;;;;;;4926701;29;20419;-79
2023/03/11 14:44:35;;;;;;;2.35;1.80;;;;;;;;;;4931766;29;20059;-79
2023/03/11 14:47:10;;;;;;;2.70;1.67;;;;;;;;;;4933511;29;20059;-79
2023/03/11 14:49:38;;;;;;;8.88;1.58;;;;;;;;;;4933975;29;20044;-79
2023/03/11 14:52:08;;;;;;;4.05;2.30;;;;;;;;;;4927898;29;20281;-79
2023/03/11 14:54:38;;;;;;;2.88;1.63;;;;;;;;;;4916459;29;20059;-79
2023/03/11 14:57:08;;;;;;;2.00;1.75;;;;;;;;;;4930952;29;20537;-78
2023/03/11 14:59:40;;;;;;;5.25;1.52;;;;;;;;;;4921885;29;20051;-78
2023/03/11 15:02:39;;;;;;;2.88;1.88;;;;;;;;;;4931385;29;20122;-78
2023/03/11 15:05:14;;;;;;;2.30;1.60;;;;;;;;;;4917442;29;20392;-79
2023/03/11 15:07:43;;;;;;;12.60;2.37;;;;;;;;;;4932804;29;20055;-79
2023/03/11 15:10:17;;;;;;;2.75;2.28;;;;;;;;;;4933793;29;20426;-79
2023/03/11 15:12:45;;;;;;;2.85;1.20;;;;;;;;;;4931748;29;20060;-79